createdAt,value
2022-10-03T00:00:00.518Z,7.00
2022-10-03T00:02:56.226Z,6.00
2022-10-03T00:05:46.275Z,5.50
2022-10-03T00:08:39.945Z,5.75
2022-10-03T00:11:28.550Z,3.75
2022-10-03T00:14:04.732Z,7.00
2022-10-03T00:16:39.021Z,6.00
2022-10-03T00:19:21.248Z,6.50
2022-10-03T00:22:00.261Z,6.00
2022-10-03T00:24:42.746Z,6.00
2022-10-03T00:27:30.763Z,4.00
2022-10-03T00:30:21.707Z,5.25
2022-10-03T00:33:10.090Z,6.00
2022-10-03T00:35:49.345Z,5.75
2022-10-03T00:38:28.531Z,6.00
2022-10-03T00:41:16.197Z,4.25
2022-10-03T00:44:13.011Z,4.50
2022-10-03T00:47:13.448Z,5.00
2022-10-03T00:50:21.518Z,5.25
2022-10-03T00:53:21.990Z,5.75
2022-10-03T00:55:57.941Z,5.25
2022-10-03T00:58:40.146Z,6.75
2022-10-03T01:01:30.948Z,3.75
2022-10-03T01:04:09.937Z,3.75
2022-10-03T01:07:19.674Z,3.75
2022-10-03T01:13:33.619Z,7.50
2022-10-03T01:16:27.324Z,4.25
2022-10-03T01:19:00.502Z,4.25
2022-10-03T01:21:57.387Z,3.00
2022-10-03T01:28:01.278Z,5.00
2022-10-03T01:30:37.409Z,6.75
2022-10-03T01:33:28.770Z,4.00
2022-10-03T01:36:22.709Z,3.00
2022-10-03T01:41:59.911Z,4.00
2022-10-03T01:44:48.553Z,3.50
2022-10-03T01:47:39.408Z,4.00
2022-10-03T01:50:36.060Z,4.75
2022-10-03T01:53:40.734Z,6.00
2022-10-03T01:56:32.913Z,3.75
2022-10-03T01:59:15.218Z,5.00
2022-10-03T02:02:15.463Z,3.00
2022-10-03T02:05:21.336Z,5.00
2022-10-03T02:07:57.492Z,5.50
2022-10-03T02:10:42.646Z,5.25
2022-10-03T02:13:36.799Z,6.25
2022-10-03T02:16:19.562Z,7.50
2022-10-03T02:19:02.072Z,6.00
2022-10-03T02:21:33.630Z,7.25
2022-10-03T02:24:18.413Z,6.00
2022-10-03T02:27:00.762Z,10.00
2022-10-03T02:29:52.201Z,7.00
2022-10-03T02:32:54.955Z,6.00
2022-10-03T02:35:44.519Z,7.75
2022-10-03T02:38:20.616Z,49.75
2022-10-03T02:41:19.511Z,34.75
2022-10-03T02:44:10.457Z,22.75
2022-10-03T02:50:00.869Z,6.00
2022-10-03T02:52:49.270Z,9.75
2022-10-03T02:55:28.057Z,10.50
2022-10-03T02:58:19.625Z,6.25
2022-10-03T03:01:18.002Z,9.00
2022-10-03T03:04:16.873Z,6.50
2022-10-03T03:07:22.166Z,6.25
2022-10-03T03:10:01.166Z,5.00
2022-10-03T03:12:52.131Z,7.25
2022-10-03T03:15:41.649Z,6.00
2022-10-03T03:18:31.281Z,7.75
2022-10-03T03:21:37.538Z,7.00
2022-10-03T03:27:37.480Z,9.25
2022-10-03T03:30:10.729Z,6.00
2022-10-03T03:33:05.797Z,6.75
2022-10-03T03:35:55.686Z,5.50
2022-10-03T03:38:37.493Z,5.25
2022-10-03T03:41:34.970Z,8.75
2022-10-03T03:44:13.984Z,4.25
2022-10-03T03:46:47.253Z,9.00
2022-10-03T03:49:39.712Z,5.00
2022-10-03T03:52:36.406Z,5.25
2022-10-03T03:55:37.340Z,9.00
2022-10-03T03:58:10.679Z,4.00
2022-10-03T04:01:04.893Z,6.00
2022-10-03T04:03:55.787Z,10.75
2022-10-03T04:06:46.657Z,9.00
2022-10-03T04:09:31.339Z,7.25
2022-10-03T04:12:21.090Z,9.00
2022-10-03T04:15:11.503Z,9.75
2022-10-03T04:24:03.944Z,6.00
2022-10-03T04:27:01.011Z,11.00
2022-10-03T04:29:40.302Z,10.00
2022-10-03T04:32:25.241Z,10.00
2022-10-03T04:35:17.349Z,11.25
2022-10-03T04:37:53.767Z,8.25
2022-10-03T04:40:29.660Z,3.50
2022-10-03T04:43:17.880Z,10.75
2022-10-03T04:46:22.530Z,10.25
2022-10-03T04:48:55.767Z,9.25
2022-10-03T04:51:29.050Z,9.75
2022-10-03T04:57:33.211Z,11.00
2022-10-03T05:00:24.748Z,15.00
2022-10-03T05:03:14.195Z,10.50
2022-10-03T05:06:00.530Z,9.75
2022-10-03T05:08:43.580Z,6.50
2022-10-03T05:11:26.137Z,9.25
2022-10-03T05:14:21.756Z,12.50
2022-10-03T05:17:17.346Z,8.25
2022-10-03T05:20:11.932Z,12.00
2022-10-03T05:23:03.710Z,6.50
2022-10-03T05:26:30.861Z,9.50
2022-10-03T05:29:07.011Z,10.25
2022-10-03T05:31:46.710Z,9.00
2022-10-03T05:34:53.431Z,8.25
2022-10-03T05:37:46.452Z,9.75
2022-10-03T05:40:25.130Z,10.50
2022-10-03T05:43:06.977Z,2.50
2022-10-03T05:46:10.720Z,8.75
2022-10-03T05:48:59.450Z,7.75
2022-10-03T05:51:56.064Z,7.80
2022-10-03T05:55:08.420Z,11.80
2022-10-03T05:58:26.202Z,7.00
2022-10-03T06:01:32.989Z,7.00
2022-10-03T06:04:11.814Z,8.00
2022-10-03T06:07:01.161Z,8.80
2022-10-03T06:09:41.616Z,7.60
2022-10-03T06:12:16.030Z,6.00
2022-10-03T06:15:01.705Z,6.80
2022-10-03T06:17:44.438Z,5.00
2022-10-03T06:20:36.156Z,7.00
2022-10-03T06:23:42.732Z,7.00
2022-10-03T06:26:36.886Z,6.00
2022-10-03T06:29:37.931Z,5.80
2022-10-03T06:32:28.173Z,5.60
2022-10-03T06:35:30.183Z,11.40
2022-10-03T06:38:12.439Z,7.40
2022-10-03T06:41:02.989Z,6.00
2022-10-03T06:43:51.280Z,6.60
2022-10-03T06:46:45.067Z,5.20
2022-10-03T06:49:26.125Z,7.00
2022-10-03T06:52:24.376Z,6.20
2022-10-03T06:55:10.961Z,7.60
2022-10-03T07:01:09.944Z,5.60
2022-10-03T07:04:03.871Z,5.00
2022-10-03T07:06:55.832Z,6.20
2022-10-03T07:09:38.152Z,7.20
2022-10-03T07:48:03.562Z,5.00
2022-10-03T07:58:17.912Z,8.40
2022-10-03T08:05:04.060Z,7.40
2022-10-03T08:07:40.155Z,4.80
2022-10-03T08:10:42.220Z,5.00
2022-10-03T08:13:38.254Z,5.00
2022-10-03T08:16:40.066Z,5.40
2022-10-03T08:19:20.685Z,4.40
2022-10-03T08:22:06.028Z,5.20
2022-10-03T08:25:01.877Z,4.20
2022-10-03T08:27:39.315Z,2.00
2022-10-03T08:30:46.497Z,8.60
2022-10-03T08:33:35.787Z,6.40
2022-10-03T08:36:36.653Z,6.80
2022-10-03T08:39:31.844Z,6.20
2022-10-03T08:42:33.683Z,6.40
2022-10-03T08:45:07.042Z,6.40
2022-10-03T08:48:13.896Z,6.40
2022-10-03T08:53:49.559Z,5.80
2022-10-03T08:56:26.409Z,5.00
2022-10-03T08:59:14.614Z,3.00
2022-10-03T09:02:26.027Z,7.00
2022-10-03T09:05:40.167Z,4.00
2022-10-03T09:08:51.952Z,4.00
2022-10-03T09:11:46.128Z,2.40
2022-10-03T09:14:53.083Z,3.80
2022-10-03T09:18:02.253Z,5.00
2022-10-03T09:20:49.712Z,5.80
2022-10-03T09:23:57.937Z,4.00
2022-10-03T09:26:50.470Z,3.80
2022-10-03T09:30:01.490Z,5.20
2022-10-03T09:32:41.965Z,4.20
2022-10-03T09:35:41.696Z,3.80
2022-10-03T09:38:50.488Z,3.80
2022-10-03T09:44:42.281Z,5.60
2022-10-03T09:48:03.069Z,3.40
2022-10-03T09:50:50.323Z,3.80
2022-10-03T09:53:38.856Z,3.40
2022-10-03T09:56:31.735Z,2.40
2022-10-03T09:59:17.715Z,3.20
2022-10-03T10:02:12.307Z,3.80
2022-10-03T10:05:01.402Z,2.00
2022-10-03T10:07:46.782Z,4.00
2022-10-03T10:10:54.887Z,3.40
2022-10-03T10:14:06.223Z,1.80
2022-10-03T10:16:38.297Z,3.00
2022-10-03T10:19:12.689Z,2.80
2022-10-03T10:22:05.579Z,3.20
2022-10-03T10:25:01.564Z,3.00
2022-10-03T10:27:49.696Z,4.60
2022-10-03T10:30:50.256Z,4.60
2022-10-03T10:34:04.851Z,3.60
2022-10-03T10:37:17.486Z,2.20
2022-10-03T10:40:00.349Z,2.60
2022-10-03T10:42:42.871Z,3.20
2022-10-03T10:45:53.791Z,2.20
2022-10-03T10:49:06.819Z,3.20
2022-10-03T10:55:30.232Z,2.20
2022-10-03T10:58:24.422Z,2.40
2022-10-03T11:01:13.100Z,4.60
2022-10-03T11:04:18.037Z,0.20
2022-10-03T11:07:27.932Z,1.20
2022-10-03T11:10:22.078Z,0.00
2022-10-03T11:14:27.444Z,1.40
2022-10-03T11:16:15.042Z,5.00
2022-10-03T11:19:02.124Z,5.00
2022-10-03T11:22:49.835Z,2.00
2022-10-03T11:25:31.744Z,3.40
2022-10-03T11:28:22.984Z,2.60
2022-10-03T11:31:41.972Z,3.80
2022-10-03T11:34:31.612Z,2.80
2022-10-03T11:37:31.894Z,3.00
2022-10-03T11:43:21.601Z,4.80
2022-10-03T11:49:22.618Z,1.80
2022-10-03T11:52:14.959Z,4.00
2022-10-03T11:54:49.603Z,3.40
2022-10-03T11:57:37.636Z,1.40
2022-10-03T12:00:19.640Z,2.00
2022-10-03T12:03:05.166Z,2.60
2022-10-03T12:06:05.349Z,3.00
2022-10-03T12:08:39.893Z,2.00
2022-10-03T12:11:31.013Z,1.80
2022-10-03T12:14:13.467Z,1.00
2022-10-03T12:17:02.154Z,0.20
2022-10-03T12:19:54.077Z,1.20
2022-10-03T12:22:48.639Z,1.00
2022-10-03T12:25:22.491Z,1.60
2022-10-03T12:28:25.122Z,1.00
2022-10-03T12:30:58.777Z,0.20
2022-10-03T12:33:44.174Z,1.00
2022-10-03T12:36:31.629Z,0.00
2022-10-03T12:39:29.428Z,1.00
2022-10-03T12:42:24.662Z,0.00
2022-10-03T12:45:06.453Z,0.20
2022-10-03T12:47:55.473Z,1.00
2022-10-03T12:50:41.649Z,0.00
2022-10-03T12:53:20.617Z,0.60
2022-10-03T12:55:57.591Z,1.80
2022-10-03T12:59:02.538Z,1.00
2022-10-03T13:02:09.322Z,1.00
2022-10-03T13:05:09.782Z,0.00
2022-10-03T13:07:48.670Z,3.40
2022-10-03T13:10:22.306Z,1.00
2022-10-03T13:16:09.259Z,0.00
2022-10-03T13:18:46.975Z,1.00
2022-10-03T13:24:00.280Z,1.00
2022-10-03T13:26:51.225Z,0.00
2022-10-03T13:29:39.893Z,1.20
2022-10-03T13:32:26.302Z,0.00
2022-10-03T13:35:05.976Z,1.00
2022-10-03T13:37:39.546Z,0.60
2022-10-03T13:40:14.418Z,3.20
2022-10-03T13:42:50.033Z,0.80
2022-10-03T13:45:24.628Z,2.60
2022-10-03T13:48:02.266Z,2.20
2022-10-03T13:50:51.080Z,1.60
2022-10-03T13:53:33.154Z,0.00
2022-10-03T13:56:10.223Z,0.80
2022-10-03T13:59:26.718Z,1.80
2022-10-03T14:02:21.624Z,2.40
2022-10-03T14:05:20.262Z,2.00
2022-10-03T14:08:08.947Z,1.20
2022-10-03T14:11:25.793Z,3.60
2022-10-03T14:14:27.939Z,2.80
2022-10-03T14:17:23.615Z,5.00
2022-10-03T14:20:19.521Z,2.00
2022-10-03T14:23:15.080Z,1.40
2022-10-03T14:26:05.564Z,3.00
2022-10-03T14:28:48.051Z,3.00
2022-10-03T14:31:33.283Z,2.00
2022-10-03T14:34:25.331Z,3.00
2022-10-03T14:37:25.722Z,3.00
2022-10-03T14:40:10.585Z,4.00
2022-10-03T14:42:53.372Z,5.00
2022-10-03T14:45:28.694Z,4.40
2022-10-03T14:48:01.919Z,2.40
2022-10-03T14:50:33.644Z,4.60
2022-10-03T14:53:09.795Z,5.20
2022-10-03T14:55:45.647Z,4.20
2022-10-03T14:58:27.891Z,4.80
2022-10-03T15:01:13.739Z,5.80
2022-10-03T15:03:50.836Z,4.60
2022-10-03T15:06:46.285Z,4.00
2022-10-03T15:09:35.519Z,4.00
2022-10-03T15:12:15.566Z,4.80
2022-10-03T15:14:49.380Z,2.60
2022-10-03T15:17:28.179Z,5.00
2022-10-03T15:20:03.707Z,5.25
2022-10-03T15:22:37.542Z,5.00
2022-10-03T15:25:17.899Z,5.75
2022-10-03T15:27:53.509Z,4.75
2022-10-03T15:30:33.043Z,1.50
2022-10-03T15:33:12.600Z,3.00
2022-10-03T15:35:46.027Z,3.50
2022-10-03T15:38:19.446Z,2.00
2022-10-03T15:40:55.390Z,2.00
2022-10-03T15:43:34.249Z,2.00
2022-10-03T15:46:24.592Z,2.75
2022-10-03T15:48:55.051Z,3.00
2022-10-03T15:51:29.143Z,2.00
2022-10-03T15:54:00.652Z,2.00
2022-10-03T15:56:33.901Z,3.00
2022-10-03T15:59:09.952Z,3.50
2022-10-03T16:01:44.422Z,3.75
2022-10-03T16:04:27.374Z,4.00
2022-10-03T16:10:14.168Z,3.00
2022-10-03T16:12:50.667Z,4.00
2022-10-03T16:15:29.869Z,3.50
2022-10-03T16:18:10.462Z,4.00
2022-10-03T16:20:50.166Z,4.00
2022-10-03T16:23:47.526Z,4.00
2022-10-03T16:29:22.041Z,5.75
2022-10-03T16:32:02.106Z,19.50
2022-10-03T16:34:37.242Z,9.75
2022-10-03T16:37:17.144Z,10.75
2022-10-03T16:39:56.991Z,5.50
2022-10-03T16:42:32.741Z,3.75
2022-10-03T16:45:05.162Z,5.75
2022-10-03T16:47:38.099Z,5.00
2022-10-03T16:50:11.504Z,6.00
2022-10-03T16:52:48.049Z,14.00
2022-10-03T16:55:33.640Z,7.75
2022-10-03T16:58:13.508Z,10.50
2022-10-03T17:01:25.886Z,7.50
2022-10-03T17:04:04.737Z,7.25
2022-10-03T17:06:40.476Z,4.50
2022-10-03T17:09:42.461Z,6.00
2022-10-03T17:12:40.670Z,4.00
2022-10-03T17:15:22.340Z,6.00
2022-10-03T17:17:56.591Z,4.50
2022-10-03T17:20:38.437Z,3.75
2022-10-03T17:23:37.153Z,3.00
2022-10-03T17:26:12.025Z,2.00
2022-10-03T17:28:54.431Z,3.25
2022-10-03T17:31:45.785Z,4.75
2022-10-03T17:34:24.573Z,5.25
2022-10-03T17:37:00.381Z,5.25
2022-10-03T17:42:41.132Z,4.50
2022-10-03T17:45:26.952Z,5.00
2022-10-03T17:48:13.559Z,5.00
2022-10-03T17:50:59.421Z,4.75
2022-10-03T17:53:34.797Z,4.00
2022-10-03T17:56:20.318Z,1.75
2022-10-03T17:59:21.902Z,4.25
2022-10-03T18:01:53.727Z,2.50
2022-10-03T18:04:43.887Z,5.00
2022-10-03T18:07:31.667Z,2.25
2022-10-03T18:10:04.150Z,3.00
2022-10-03T18:12:39.939Z,2.25
2022-10-03T18:15:35.041Z,2.00
2022-10-03T18:18:28.445Z,1.50
2022-10-03T18:21:04.556Z,1.25
2022-10-03T18:23:56.237Z,3.00
2022-10-03T18:26:31.785Z,13.50
2022-10-03T18:29:25.625Z,2.75
2022-10-03T18:32:06.550Z,2.00
2022-10-03T18:35:01.550Z,4.50
2022-10-03T18:37:55.308Z,2.00
2022-10-03T18:40:40.903Z,0.50
2022-10-03T18:46:12.359Z,3.00
2022-10-03T18:49:23.936Z,2.75
2022-10-03T18:51:32.354Z,3.00
2022-10-03T18:54:22.082Z,2.00
2022-10-03T18:57:24.411Z,2.00
2022-10-03T19:00:18.844Z,15.75
2022-10-03T19:02:55.688Z,32.00
2022-10-03T19:05:34.932Z,56.50
2022-10-03T19:08:20.010Z,66.75
2022-10-03T19:10:53.131Z,66.50
2022-10-03T19:13:54.183Z,61.25
2022-10-03T19:16:45.587Z,52.75
2022-10-03T19:19:24.607Z,62.25
2022-10-03T19:21:58.387Z,61.75
2022-10-03T19:24:57.738Z,58.25
2022-10-03T19:27:35.252Z,50.25
2022-10-03T19:30:09.153Z,63.00
2022-10-03T19:32:54.381Z,78.25
2022-10-03T19:35:26.072Z,79.25
2022-10-03T19:38:05.977Z,73.50
2022-10-03T19:40:56.240Z,73.75
2022-10-03T19:43:45.824Z,64.75
2022-10-03T19:46:24.895Z,72.75
2022-10-03T19:49:03.827Z,51.75
2022-10-03T19:51:34.224Z,53.00
2022-10-03T19:54:07.540Z,45.25
2022-10-03T19:56:38.917Z,34.25
2022-10-03T19:59:18.269Z,29.00
2022-10-03T20:01:51.236Z,36.50
2022-10-03T20:04:24.626Z,27.50
2022-10-03T20:06:59.230Z,24.00
2022-10-03T20:09:32.471Z,12.50
2022-10-03T20:12:05.167Z,16.50
2022-10-03T20:14:37.686Z,51.50
2022-10-03T20:17:16.669Z,67.00
2022-10-03T20:19:56.300Z,7.25
2022-10-03T20:22:33.009Z,9.00
2022-10-03T20:25:06.332Z,7.00
2022-10-03T20:27:45.623Z,4.50
2022-10-03T20:30:27.690Z,6.25
2022-10-03T20:32:59.811Z,4.00
2022-10-03T20:35:49.407Z,7.50
2022-10-03T20:38:25.567Z,5.00
2022-10-03T20:41:01.587Z,6.50
2022-10-03T20:43:41.845Z,9.00
2022-10-03T20:46:24.988Z,4.25
2022-10-03T20:49:07.430Z,3.00
2022-10-03T20:51:46.498Z,2.00
2022-10-03T20:54:21.713Z,3.00
2022-10-03T20:57:15.907Z,2.50
2022-10-03T20:59:52.069Z,2.00
2022-10-03T21:02:43.033Z,2.00
2022-10-03T21:05:32.313Z,2.50
2022-10-03T21:10:58.801Z,2.25
2022-10-03T21:13:35.155Z,3.00
2022-10-03T21:16:10.070Z,2.75
2022-10-03T21:18:44.839Z,3.25
2022-10-03T21:21:40.786Z,3.25
2022-10-03T21:24:26.128Z,1.50
2022-10-03T21:27:02.832Z,2.75
2022-10-03T21:29:37.246Z,2.00
2022-10-03T21:32:21.915Z,1.50
2022-10-03T21:35:25.099Z,3.00
2022-10-03T21:38:21.493Z,2.25
2022-10-03T21:41:15.804Z,2.75
2022-10-03T21:43:54.541Z,3.00
2022-10-03T21:46:30.718Z,2.00
2022-10-03T21:49:08.156Z,3.50
2022-10-03T21:52:11.625Z,4.00
2022-10-03T21:55:29.817Z,4.25
2022-10-03T22:04:35.925Z,3.50
2022-10-03T22:07:19.037Z,3.00
2022-10-03T22:09:53.745Z,5.00
2022-10-03T22:12:27.062Z,2.00
2022-10-03T22:15:03.297Z,2.00
2022-10-03T22:17:42.711Z,3.50
2022-10-03T22:20:18.877Z,2.00
2022-10-03T22:22:58.035Z,2.00
2022-10-03T22:25:37.302Z,3.75
2022-10-03T22:28:19.850Z,3.00
2022-10-03T22:30:59.100Z,5.25
2022-10-03T22:33:41.380Z,5.00
2022-10-03T22:36:13.580Z,4.00
2022-10-03T22:38:46.875Z,4.00
2022-10-03T22:41:20.555Z,3.00
2022-10-03T22:43:52.159Z,4.75
2022-10-03T22:46:25.570Z,6.75
2022-10-03T22:49:07.951Z,3.75
2022-10-03T22:51:40.413Z,4.00
2022-10-03T22:54:18.866Z,3.00
2022-10-03T22:56:55.103Z,4.50
2022-10-03T22:59:31.691Z,3.25
2022-10-03T23:02:04.855Z,3.00
2022-10-03T23:04:41.663Z,2.00
2022-10-03T23:07:23.730Z,2.75
2022-10-03T23:10:13.713Z,3.25
2022-10-03T23:12:52.388Z,3.00
2022-10-03T23:15:23.811Z,2.00
2022-10-03T23:18:13.695Z,2.00
2022-10-03T23:20:58.471Z,5.50
2022-10-03T23:23:37.173Z,1.00
2022-10-03T23:29:19.681Z,2.00
2022-10-03T23:34:44.312Z,4.00
2022-10-03T23:37:17.581Z,2.50
2022-10-03T23:39:59.933Z,4.50
2022-10-03T23:42:44.540Z,5.25
2022-10-03T23:45:23.695Z,3.00
2022-10-03T23:48:09.764Z,4.75
2022-10-03T23:51:01.336Z,4.00
2022-10-03T23:53:40.055Z,4.50
2022-10-03T23:56:25.367Z,3.50
2022-10-03T23:59:00.983Z,2.50
